Observations for BOURNEMOUTH AIRPORT, United Kingdom (EGHH)

EGHH 242020Z 23015G26KT 8000 -DZ OVC006 11/11 Q1010 
EGHH 241950Z 23017KT 8000 DZRA OVC004 11/11 Q1010   
EGHH 241920Z 24015KT 5000 BR OVC004 11/11 Q1010 
EGHH 241850Z 23018G29KT 4000 BR OVC003 11/11 Q1010  
EGHH 241820Z 23016KT 5000 BR OVC004 11/11 Q1010 
EGHH 241750Z 23017KT 8000 OVC004 11/11 Q1011
EGHH 241720Z 24015G25KT 8000 OVC005 12/11 Q1011 
EGHH 241650Z 24018G28KT 5000 -DZ BR OVC005 12/11 Q1011  
EGHH 241620Z 24015G25KT 8000 OVC005 12/11 Q1012 
EGHH 241550Z 23016KT 4000 -DZ BR OVC006 12/11 Q1012 
EGHH 241520Z 23014KT 2500 -DZ BR OVC005 12/11 Q1013 
EGHH 241450Z 23012G22KT 3500 -DZ BR OVC004 12/11 Q1013  
EGHH 241420Z 23014KT 6000 OVC004 12/11 Q1013
EGHH 241350Z 23014KT 7000 OVC003 12/11 Q1014
EGHH 241320Z 23011KT 3500 BR -DZ OVC003 12/11 Q1014 
EGHH 241250Z 23011KT 1500 BR -DZ BKN003 12/11 Q1014 
EGHH 241220Z 20009KT 1500 BR BKN003 12/11 Q1015 
EGHH 241150Z 22013KT 5000 BR FEW003 BKN006 12/11 Q1015  
EGHH 241120Z 23013KT 9999 FEW009 BKN012 13/11 Q1016 
EGHH 241050Z 20009KT 9999 FEW016 14/10 Q1016
EGHH 241020Z 23007KT 180V250 9999 FEW021 15/11 Q1016
EGHH 240950Z 24009KT 9999 SCT021 14/10 Q1016
EGHH 240920Z 22008KT 9999 SCT021 14/10 Q1016
EGHH 240850Z 25007KT 9999 SCT018 14/09 Q1016
EGHH 240820Z 26008KT 200V270 9999 SCT016 14/10 Q1016
EGHH 240750Z 28009KT 200V280 9999 SCT014 13/10 Q1017
EGHH 240720Z 27008KT 9999 SCT012 12/10 Q1016
EGHH 240650Z 25007KT 9999 FEW010 12/10 Q1016
EGHH 240620Z 24005KT 9999 FEW010 11/10 Q1016
EGHH 240550Z 23006KT 9999 FEW010 11/10 Q1016
EGHH 240520Z 23004KT 9999 FEW010 11/10 Q1016
EGHH 240450Z 25005KT 9999 FEW010 11/10 Q1016
EGHH 232250Z 24012G22KT 9999 BKN020 11/08 Q1017 
EGHH 232220Z 24008KT 9999 BKN015 11/08 Q1017
EGHH 232150Z 24014KT 9999 SCT033 11/08 Q1017
EGHH 232120Z 23009KT 9999 BKN033 11/08 Q1017
EGHH 232050Z 24011KT 9999 BKN033 11/08 Q1018
EGHH 232020Z 25013KT 9999 BKN033 11/07 Q1018
EGHH 231950Z 25012KT 9999 BKN036 11/07 Q1017